sensor_id;sensor_type;location;lat;lon;timestamp;P1;durP1;ratioP1;P2;durP2;ratioP2
24305;SDS011;12423;48.768;8.850;2022-10-24T00:01:28;6.60;;;0.95;;
24305;SDS011;12423;48.768;8.850;2022-10-24T00:03:29;5.68;;;1.17;;
24305;SDS011;12423;48.768;8.850;2022-10-24T00:05:30;7.18;;;1.30;;
24305;SDS011;12423;48.768;8.850;2022-10-24T00:07:30;8.07;;;1.63;;
24305;SDS011;12423;48.768;8.850;2022-10-24T00:09:32;8.02;;;1.20;;
24305;SDS011;12423;48.768;8.850;2022-10-24T00:11:34;8.45;;;1.20;;
24305;SDS011;12423;48.768;8.850;2022-10-24T00:13:35;6.80;;;1.63;;
24305;SDS011;12423;48.768;8.850;2022-10-24T00:15:36;5.97;;;1.25;;
24305;SDS011;12423;48.768;8.850;2022-10-24T00:17:38;4.38;;;1.17;;
24305;SDS011;12423;48.768;8.850;2022-10-24T00:19:39;6.45;;;1.17;;
24305;SDS011;12423;48.768;8.850;2022-10-24T00:21:40;8.35;;;2.22;;
24305;SDS011;12423;48.768;8.850;2022-10-24T00:23:41;7.40;;;1.75;;
24305;SDS011;12423;48.768;8.850;2022-10-24T00:25:42;16.77;;;2.17;;
24305;SDS011;12423;48.768;8.850;2022-10-24T00:27:43;6.72;;;1.30;;
24305;SDS011;12423;48.768;8.850;2022-10-24T00:29:44;8.52;;;1.10;;
24305;SDS011;12423;48.768;8.850;2022-10-24T00:31:45;4.78;;;1.20;;
24305;SDS011;12423;48.768;8.850;2022-10-24T00:33:46;6.28;;;1.35;;
24305;SDS011;12423;48.768;8.850;2022-10-24T00:35:47;3.53;;;1.30;;
24305;SDS011;12423;48.768;8.850;2022-10-24T00:37:48;8.75;;;1.00;;
24305;SDS011;12423;48.768;8.850;2022-10-24T00:39:49;6.35;;;1.50;;
24305;SDS011;12423;48.768;8.850;2022-10-24T00:41:50;6.07;;;1.38;;
24305;SDS011;12423;48.768;8.850;2022-10-24T00:44:13;3.53;;;1.20;;
24305;SDS011;12423;48.768;8.850;2022-10-24T00:46:20;34.78;;;32.42;;
24305;SDS011;12423;48.768;8.850;2022-10-24T00:48:30;15.82;;;12.93;;
24305;SDS011;12423;48.768;8.850;2022-10-24T00:50:34;711.40;;;666.25;;
24305;SDS011;12423;48.768;8.850;2022-10-24T00:52:37;799.35;;;733.45;;
24305;SDS011;12423;48.768;8.850;2022-10-24T00:54:42;366.45;;;343.25;;
24305;SDS011;12423;48.768;8.850;2022-10-24T00:56:46;156.57;;;145.43;;
24305;SDS011;12423;48.768;8.850;2022-10-24T00:58:53;52.67;;;49.22;;
24305;SDS011;12423;48.768;8.850;2022-10-24T01:00:56;154.23;;;145.00;;
24305;SDS011;12423;48.768;8.850;2022-10-24T01:02:58;120.93;;;114.00;;
24305;SDS011;12423;48.768;8.850;2022-10-24T01:04:59;7.35;;;3.55;;
24305;SDS011;12423;48.768;8.850;2022-10-24T01:16:49;208.13;;;195.63;;
24305;SDS011;12423;48.768;8.850;2022-10-24T01:18:59;325.15;;;304.23;;
24305;SDS011;12423;48.768;8.850;2022-10-24T01:21:13;364.77;;;342.50;;
24305;SDS011;12423;48.768;8.850;2022-10-24T01:25:26;6.05;;;1.58;;
24305;SDS011;12423;48.768;8.850;2022-10-24T01:30:12;8.32;;;1.13;;
24305;SDS011;12423;48.768;8.850;2022-10-24T01:34:46;4.43;;;1.23;;
24305;SDS011;12423;48.768;8.850;2022-10-24T01:36:59;7.60;;;1.20;;
24305;SDS011;12423;48.768;8.850;2022-10-24T01:39:02;4.00;;;1.02;;
24305;SDS011;12423;48.768;8.850;2022-10-24T01:41:09;3.47;;;1.40;;
24305;SDS011;12423;48.768;8.850;2022-10-24T01:43:13;8.45;;;1.45;;
24305;SDS011;12423;48.768;8.850;2022-10-24T01:45:20;5.45;;;1.33;;
24305;SDS011;12423;48.768;8.850;2022-10-24T01:47:28;3.40;;;0.77;;
24305;SDS011;12423;48.768;8.850;2022-10-24T01:49:36;7.40;;;1.20;;
24305;SDS011;12423;48.768;8.850;2022-10-24T01:51:40;6.28;;;1.15;;
24305;SDS011;12423;48.768;8.850;2022-10-24T01:53:43;4.93;;;1.50;;
24305;SDS011;12423;48.768;8.850;2022-10-24T01:55:45;8.50;;;1.48;;
24305;SDS011;12423;48.768;8.850;2022-10-24T01:57:46;4.50;;;1.02;;
24305;SDS011;12423;48.768;8.850;2022-10-24T01:59:47;5.38;;;1.23;;
24305;SDS011;12423;48.768;8.850;2022-10-24T02:01:48;9.13;;;1.30;;
24305;SDS011;12423;48.768;8.850;2022-10-24T02:03:52;4.95;;;1.17;;
24305;SDS011;12423;48.768;8.850;2022-10-24T02:05:58;9.27;;;2.10;;
24305;SDS011;12423;48.768;8.850;2022-10-24T02:08:07;5.45;;;1.40;;
24305;SDS011;12423;48.768;8.850;2022-10-24T02:12:33;8.07;;;1.30;;
24305;SDS011;12423;48.768;8.850;2022-10-24T02:14:40;9.23;;;1.23;;
24305;SDS011;12423;48.768;8.850;2022-10-24T02:16:45;10.13;;;2.13;;
24305;SDS011;12423;48.768;8.850;2022-10-24T02:18:48;8.73;;;1.40;;
24305;SDS011;12423;48.768;8.850;2022-10-24T02:20:53;7.50;;;1.50;;
24305;SDS011;12423;48.768;8.850;2022-10-24T02:23:09;6.82;;;1.55;;
24305;SDS011;12423;48.768;8.850;2022-10-24T02:25:16;9.10;;;1.23;;
24305;SDS011;12423;48.768;8.850;2022-10-24T02:27:30;6.90;;;1.55;;
24305;SDS011;12423;48.768;8.850;2022-10-24T02:29:42;10.27;;;1.48;;
24305;SDS011;12423;48.768;8.850;2022-10-24T02:31:55;8.35;;;1.80;;
24305;SDS011;12423;48.768;8.850;2022-10-24T02:33:58;6.15;;;1.65;;
24305;SDS011;12423;48.768;8.850;2022-10-24T02:36:00;11.98;;;1.70;;
24305;SDS011;12423;48.768;8.850;2022-10-24T02:38:15;7.43;;;1.70;;
24305;SDS011;12423;48.768;8.850;2022-10-24T02:40:21;6.78;;;1.33;;
24305;SDS011;12423;48.768;8.850;2022-10-24T02:42:23;5.53;;;1.42;;
24305;SDS011;12423;48.768;8.850;2022-10-24T02:44:27;6.95;;;2.28;;
24305;SDS011;12423;48.768;8.850;2022-10-24T02:46:30;9.57;;;2.63;;
24305;SDS011;12423;48.768;8.850;2022-10-24T02:48:33;8.52;;;1.85;;
24305;SDS011;12423;48.768;8.850;2022-10-24T02:50:38;7.90;;;1.70;;
24305;SDS011;12423;48.768;8.850;2022-10-24T02:52:41;11.23;;;1.80;;
24305;SDS011;12423;48.768;8.850;2022-10-24T02:54:43;10.93;;;1.40;;
24305;SDS011;12423;48.768;8.850;2022-10-24T02:56:48;12.13;;;2.00;;
24305;SDS011;12423;48.768;8.850;2022-10-24T02:58:54;10.05;;;1.80;;
24305;SDS011;12423;48.768;8.850;2022-10-24T03:00:55;7.30;;;1.92;;
24305;SDS011;12423;48.768;8.850;2022-10-24T03:02:56;12.13;;;1.88;;
24305;SDS011;12423;48.768;8.850;2022-10-24T03:04:57;8.13;;;1.63;;
24305;SDS011;12423;48.768;8.850;2022-10-24T03:06:58;5.15;;;1.45;;
24305;SDS011;12423;48.768;8.850;2022-10-24T03:08:59;4.75;;;1.88;;
24305;SDS011;12423;48.768;8.850;2022-10-24T03:11:00;5.32;;;1.60;;
24305;SDS011;12423;48.768;8.850;2022-10-24T03:13:01;10.35;;;1.88;;
24305;SDS011;12423;48.768;8.850;2022-10-24T03:15:03;10.38;;;1.95;;
24305;SDS011;12423;48.768;8.850;2022-10-24T03:17:04;10.70;;;1.75;;
24305;SDS011;12423;48.768;8.850;2022-10-24T03:19:05;8.27;;;1.80;;
24305;SDS011;12423;48.768;8.850;2022-10-24T03:21:06;12.13;;;1.92;;
24305;SDS011;12423;48.768;8.850;2022-10-24T03:23:07;8.10;;;2.10;;
24305;SDS011;12423;48.768;8.850;2022-10-24T03:25:08;13.70;;;2.33;;
24305;SDS011;12423;48.768;8.850;2022-10-24T03:27:11;8.30;;;2.00;;
24305;SDS011;12423;48.768;8.850;2022-10-24T03:29:12;9.52;;;2.28;;
24305;SDS011;12423;48.768;8.850;2022-10-24T03:31:13;8.68;;;1.85;;
24305;SDS011;12423;48.768;8.850;2022-10-24T03:33:14;7.43;;;1.95;;
24305;SDS011;12423;48.768;8.850;2022-10-24T03:35:16;12.23;;;2.83;;
24305;SDS011;12423;48.768;8.850;2022-10-24T03:37:17;9.93;;;3.38;;
24305;SDS011;12423;48.768;8.850;2022-10-24T03:39:18;19.38;;;2.30;;
24305;SDS011;12423;48.768;8.850;2022-10-24T03:41:19;7.32;;;2.30;;
24305;SDS011;12423;48.768;8.850;2022-10-24T03:43:20;7.85;;;1.90;;
24305;SDS011;12423;48.768;8.850;2022-10-24T03:45:21;11.38;;;2.40;;
24305;SDS011;12423;48.768;8.850;2022-10-24T03:47:22;11.07;;;1.92;;
24305;SDS011;12423;48.768;8.850;2022-10-24T03:49:23;8.70;;;2.13;;
24305;SDS011;12423;48.768;8.850;2022-10-24T03:51:24;6.03;;;2.35;;
24305;SDS011;12423;48.768;8.850;2022-10-24T03:53:25;8.43;;;2.05;;
24305;SDS011;12423;48.768;8.850;2022-10-24T03:55:26;11.25;;;2.60;;
24305;SDS011;12423;48.768;8.850;2022-10-24T03:57:28;10.57;;;2.40;;
24305;SDS011;12423;48.768;8.850;2022-10-24T03:59:29;14.63;;;2.67;;
24305;SDS011;12423;48.768;8.850;2022-10-24T04:01:30;11.18;;;2.13;;
24305;SDS011;12423;48.768;8.850;2022-10-24T04:03:31;11.07;;;2.40;;
24305;SDS011;12423;48.768;8.850;2022-10-24T04:05:32;10.18;;;2.42;;
24305;SDS011;12423;48.768;8.850;2022-10-24T04:07:33;10.60;;;2.75;;
24305;SDS011;12423;48.768;8.850;2022-10-24T04:09:34;13.52;;;2.17;;
24305;SDS011;12423;48.768;8.850;2022-10-24T04:11:35;7.60;;;1.65;;
24305;SDS011;12423;48.768;8.850;2022-10-24T04:13:36;8.18;;;2.00;;
24305;SDS011;12423;48.768;8.850;2022-10-24T04:15:37;13.57;;;2.25;;
24305;SDS011;12423;48.768;8.850;2022-10-24T04:17:38;10.13;;;2.20;;
24305;SDS011;12423;48.768;8.850;2022-10-24T04:19:39;9.38;;;2.38;;
24305;SDS011;12423;48.768;8.850;2022-10-24T04:21:40;12.80;;;2.20;;
24305;SDS011;12423;48.768;8.850;2022-10-24T04:23:41;9.63;;;1.95;;
24305;SDS011;12423;48.768;8.850;2022-10-24T04:25:44;6.65;;;1.92;;
24305;SDS011;12423;48.768;8.850;2022-10-24T04:27:45;8.40;;;2.38;;
24305;SDS011;12423;48.768;8.850;2022-10-24T04:29:46;7.57;;;1.98;;
24305;SDS011;12423;48.768;8.850;2022-10-24T04:31:47;7.35;;;2.00;;
24305;SDS011;12423;48.768;8.850;2022-10-24T04:33:48;8.23;;;1.95;;
24305;SDS011;12423;48.768;8.850;2022-10-24T04:35:50;8.73;;;2.20;;
24305;SDS011;12423;48.768;8.850;2022-10-24T04:37:52;12.70;;;2.45;;
24305;SDS011;12423;48.768;8.850;2022-10-24T04:39:53;9.70;;;2.42;;
24305;SDS011;12423;48.768;8.850;2022-10-24T04:41:54;9.10;;;2.22;;
24305;SDS011;12423;48.768;8.850;2022-10-24T04:43:55;6.53;;;1.95;;
24305;SDS011;12423;48.768;8.850;2022-10-24T04:45:56;8.35;;;3.45;;
24305;SDS011;12423;48.768;8.850;2022-10-24T04:47:57;12.18;;;1.98;;
24305;SDS011;12423;48.768;8.850;2022-10-24T04:49:58;8.05;;;2.40;;
24305;SDS011;12423;48.768;8.850;2022-10-24T04:51:59;10.50;;;2.45;;
24305;SDS011;12423;48.768;8.850;2022-10-24T04:54:00;5.82;;;1.98;;
24305;SDS011;12423;48.768;8.850;2022-10-24T04:56:01;10.10;;;2.13;;
24305;SDS011;12423;48.768;8.850;2022-10-24T04:58:03;7.07;;;2.25;;
24305;SDS011;12423;48.768;8.850;2022-10-24T05:00:04;9.88;;;2.38;;
24305;SDS011;12423;48.768;8.850;2022-10-24T05:02:07;6.38;;;1.90;;
24305;SDS011;12423;48.768;8.850;2022-10-24T05:04:08;8.00;;;1.85;;
24305;SDS011;12423;48.768;8.850;2022-10-24T05:06:09;8.50;;;2.05;;
24305;SDS011;12423;48.768;8.850;2022-10-24T05:08:10;9.60;;;1.85;;
24305;SDS011;12423;48.768;8.850;2022-10-24T05:10:12;11.75;;;2.03;;
24305;SDS011;12423;48.768;8.850;2022-10-24T05:12:13;14.02;;;2.30;;
24305;SDS011;12423;48.768;8.850;2022-10-24T05:14:14;7.03;;;2.90;;
24305;SDS011;12423;48.768;8.850;2022-10-24T05:16:15;11.70;;;1.98;;
24305;SDS011;12423;48.768;8.850;2022-10-24T05:18:16;11.32;;;2.33;;
24305;SDS011;12423;48.768;8.850;2022-10-24T05:20:17;10.98;;;2.75;;
24305;SDS011;12423;48.768;8.850;2022-10-24T05:22:18;7.57;;;3.13;;
24305;SDS011;12423;48.768;8.850;2022-10-24T05:24:20;7.88;;;2.13;;
24305;SDS011;12423;48.768;8.850;2022-10-24T05:26:21;15.85;;;2.55;;
24305;SDS011;12423;48.768;8.850;2022-10-24T05:28:22;9.73;;;3.38;;
24305;SDS011;12423;48.768;8.850;2022-10-24T05:30:23;8.30;;;2.40;;
24305;SDS011;12423;48.768;8.850;2022-10-24T05:32:24;10.65;;;2.35;;
24305;SDS011;12423;48.768;8.850;2022-10-24T05:34:26;6.90;;;2.10;;
24305;SDS011;12423;48.768;8.850;2022-10-24T05:36:27;13.55;;;3.00;;
24305;SDS011;12423;48.768;8.850;2022-10-24T05:38:28;13.68;;;2.28;;
24305;SDS011;12423;48.768;8.850;2022-10-24T05:40:29;8.63;;;2.53;;
24305;SDS011;12423;48.768;8.850;2022-10-24T05:42:30;12.13;;;2.97;;
24305;SDS011;12423;48.768;8.850;2022-10-24T05:44:31;12.88;;;2.67;;
24305;SDS011;12423;48.768;8.850;2022-10-24T05:46:31;9.77;;;2.60;;
24305;SDS011;12423;48.768;8.850;2022-10-24T05:48:32;8.35;;;2.30;;
24305;SDS011;12423;48.768;8.850;2022-10-24T05:50:33;11.30;;;2.60;;
24305;SDS011;12423;48.768;8.850;2022-10-24T05:52:35;18.15;;;7.10;;
24305;SDS011;12423;48.768;8.850;2022-10-24T05:54:36;9.85;;;2.85;;
24305;SDS011;12423;48.768;8.850;2022-10-24T05:56:37;18.63;;;5.00;;
24305;SDS011;12423;48.768;8.850;2022-10-24T05:58:38;8.90;;;2.45;;
24305;SDS011;12423;48.768;8.850;2022-10-24T06:00:39;13.80;;;2.90;;
24305;SDS011;12423;48.768;8.850;2022-10-24T06:02:40;11.98;;;2.25;;
24305;SDS011;12423;48.768;8.850;2022-10-24T06:04:41;7.03;;;2.45;;
24305;SDS011;12423;48.768;8.850;2022-10-24T06:06:43;9.68;;;2.55;;
24305;SDS011;12423;48.768;8.850;2022-10-24T06:08:44;11.95;;;2.50;;
24305;SDS011;12423;48.768;8.850;2022-10-24T06:10:48;8.13;;;2.40;;
24305;SDS011;12423;48.768;8.850;2022-10-24T06:12:50;10.52;;;2.38;;
24305;SDS011;12423;48.768;8.850;2022-10-24T06:14:54;14.88;;;3.08;;
24305;SDS011;12423;48.768;8.850;2022-10-24T06:16:56;9.43;;;2.38;;
24305;SDS011;12423;48.768;8.850;2022-10-24T06:18:57;6.35;;;2.20;;
24305;SDS011;12423;48.768;8.850;2022-10-24T06:20:58;10.93;;;3.00;;
24305;SDS011;12423;48.768;8.850;2022-10-24T06:23:01;10.82;;;2.72;;
24305;SDS011;12423;48.768;8.850;2022-10-24T06:25:02;10.63;;;2.97;;
24305;SDS011;12423;48.768;8.850;2022-10-24T06:27:03;8.27;;;2.42;;
24305;SDS011;12423;48.768;8.850;2022-10-24T06:29:06;12.60;;;2.63;;
24305;SDS011;12423;48.768;8.850;2022-10-24T06:31:08;9.73;;;2.70;;
24305;SDS011;12423;48.768;8.850;2022-10-24T06:33:10;5.05;;;1.70;;
24305;SDS011;12423;48.768;8.850;2022-10-24T06:35:11;8.32;;;2.28;;
24305;SDS011;12423;48.768;8.850;2022-10-24T06:37:14;9.38;;;2.38;;
24305;SDS011;12423;48.768;8.850;2022-10-24T06:39:15;8.35;;;2.22;;
24305;SDS011;12423;48.768;8.850;2022-10-24T06:41:16;5.82;;;2.40;;
24305;SDS011;12423;48.768;8.850;2022-10-24T06:43:17;10.90;;;2.88;;
24305;SDS011;12423;48.768;8.850;2022-10-24T06:45:19;15.00;;;2.22;;
24305;SDS011;12423;48.768;8.850;2022-10-24T06:47:21;14.60;;;2.75;;
24305;SDS011;12423;48.768;8.850;2022-10-24T06:49:22;0.00;;;0.00;;
24305;SDS011;12423;48.768;8.850;2022-10-24T06:51:23;0.20;;;0.15;;
24305;SDS011;12423;48.768;8.850;2022-10-24T06:53:24;1.00;;;0.57;;
24305;SDS011;12423;48.768;8.850;2022-10-24T06:55:25;0.00;;;0.00;;
24305;SDS011;12423;48.768;8.850;2022-10-24T06:57:26;0.00;;;0.00;;
24305;SDS011;12423;48.768;8.850;2022-10-24T06:59:27;0.22;;;0.22;;
24305;SDS011;12423;48.768;8.850;2022-10-24T07:01:28;0.00;;;0.00;;
24305;SDS011;12423;48.768;8.850;2022-10-24T07:03:31;0.35;;;0.35;;
24305;SDS011;12423;48.768;8.850;2022-10-24T07:05:32;0.00;;;0.00;;
24305;SDS011;12423;48.768;8.850;2022-10-24T07:07:33;0.00;;;0.00;;
24305;SDS011;12423;48.768;8.850;2022-10-24T07:09:34;0.32;;;0.25;;
24305;SDS011;12423;48.768;8.850;2022-10-24T07:11:35;0.00;;;0.00;;
24305;SDS011;12423;48.768;8.850;2022-10-24T07:13:36;33.00;;;1.33;;
24305;SDS011;12423;48.768;8.850;2022-10-24T07:15:37;0.03;;;0.03;;
24305;SDS011;12423;48.768;8.850;2022-10-24T07:17:39;0.35;;;0.35;;
24305;SDS011;12423;48.768;8.850;2022-10-24T07:19:43;0.05;;;0.05;;
24305;SDS011;12423;48.768;8.850;2022-10-24T07:21:44;21.35;;;1.13;;
24305;SDS011;12423;48.768;8.850;2022-10-24T07:23:45;0.80;;;0.80;;
24305;SDS011;12423;48.768;8.850;2022-10-24T07:25:46;0.00;;;0.00;;
24305;SDS011;12423;48.768;8.850;2022-10-24T07:27:47;731.67;;;674.08;;
24305;SDS011;12423;48.768;8.850;2022-10-24T07:29:52;745.42;;;684.83;;
24305;SDS011;12423;48.768;8.850;2022-10-24T07:31:53;0.00;;;0.00;;
24305;SDS011;12423;48.768;8.850;2022-10-24T07:33:54;5.38;;;1.42;;
24305;SDS011;12423;48.768;8.850;2022-10-24T07:35:55;0.00;;;0.00;;
24305;SDS011;12423;48.768;8.850;2022-10-24T07:37:57;0.38;;;0.20;;
24305;SDS011;12423;48.768;8.850;2022-10-24T07:39:58;0.00;;;0.00;;
24305;SDS011;12423;48.768;8.850;2022-10-24T07:41:59;0.10;;;0.10;;
24305;SDS011;12423;48.768;8.850;2022-10-24T07:44:00;0.43;;;0.38;;
24305;SDS011;12423;48.768;8.850;2022-10-24T07:46:08;0.70;;;0.55;;
24305;SDS011;12423;48.768;8.850;2022-10-24T07:48:11;0.70;;;0.70;;
24305;SDS011;12423;48.768;8.850;2022-10-24T07:50:12;2.63;;;1.85;;
24305;SDS011;12423;48.768;8.850;2022-10-24T07:52:15;0.63;;;0.63;;
24305;SDS011;12423;48.768;8.850;2022-10-24T07:54:16;0.10;;;0.10;;
24305;SDS011;12423;48.768;8.850;2022-10-24T07:56:17;0.00;;;0.00;;
24305;SDS011;12423;48.768;8.850;2022-10-24T07:58:18;0.00;;;0.00;;
24305;SDS011;12423;48.768;8.850;2022-10-24T08:00:19;1.00;;;0.73;;
24305;SDS011;12423;48.768;8.850;2022-10-24T08:02:20;0.90;;;0.77;;
24305;SDS011;12423;48.768;8.850;2022-10-24T08:04:21;0.55;;;0.20;;
24305;SDS011;12423;48.768;8.850;2022-10-24T08:06:23;0.13;;;0.13;;
24305;SDS011;12423;48.768;8.850;2022-10-24T08:08:27;0.20;;;0.20;;
24305;SDS011;12423;48.768;8.850;2022-10-24T08:10:28;20.38;;;1.10;;
24305;SDS011;12423;48.768;8.850;2022-10-24T08:12:29;0.17;;;0.17;;
24305;SDS011;12423;48.768;8.850;2022-10-24T08:14:30;0.47;;;0.47;;
24305;SDS011;12423;48.768;8.850;2022-10-24T08:16:31;0.32;;;0.32;;
24305;SDS011;12423;48.768;8.850;2022-10-24T08:18:33;0.00;;;0.00;;
24305;SDS011;12423;48.768;8.850;2022-10-24T08:20:34;0.13;;;0.13;;
24305;SDS011;12423;48.768;8.850;2022-10-24T08:22:35;0.22;;;0.22;;
24305;SDS011;12423;48.768;8.850;2022-10-24T08:24:36;0.63;;;0.57;;
24305;SDS011;12423;48.768;8.850;2022-10-24T08:26:37;0.20;;;0.20;;
24305;SDS011;12423;48.768;8.850;2022-10-24T08:28:40;0.20;;;0.20;;
24305;SDS011;12423;48.768;8.850;2022-10-24T08:30:42;0.00;;;0.00;;
24305;SDS011;12423;48.768;8.850;2022-10-24T08:32:43;1.38;;;0.80;;
24305;SDS011;12423;48.768;8.850;2022-10-24T08:34:44;0.20;;;0.15;;
24305;SDS011;12423;48.768;8.850;2022-10-24T08:36:46;4.20;;;1.65;;
24305;SDS011;12423;48.768;8.850;2022-10-24T08:38:48;2.33;;;1.55;;
24305;SDS011;12423;48.768;8.850;2022-10-24T08:40:49;0.05;;;0.05;;
24305;SDS011;12423;48.768;8.850;2022-10-24T08:42:50;0.28;;;0.28;;
24305;SDS011;12423;48.768;8.850;2022-10-24T08:44:51;0.05;;;0.05;;
24305;SDS011;12423;48.768;8.850;2022-10-24T08:48:59;0.10;;;0.10;;
24305;SDS011;12423;48.768;8.850;2022-10-24T08:53:26;0.20;;;0.20;;
24305;SDS011;12423;48.768;8.850;2022-10-24T08:56:03;0.10;;;0.10;;
24305;SDS011;12423;48.768;8.850;2022-10-24T08:57:58;0.32;;;0.28;;
24305;SDS011;12423;48.768;8.850;2022-10-24T09:00:02;0.47;;;0.47;;
24305;SDS011;12423;48.768;8.850;2022-10-24T09:02:15;0.00;;;0.00;;
24305;SDS011;12423;48.768;8.850;2022-10-24T09:04:20;0.28;;;0.20;;
24305;SDS011;12423;48.768;8.850;2022-10-24T09:06:25;1.17;;;0.30;;
24305;SDS011;12423;48.768;8.850;2022-10-24T09:10:37;0.00;;;0.00;;
24305;SDS011;12423;48.768;8.850;2022-10-24T09:12:46;0.00;;;0.00;;
24305;SDS011;12423;48.768;8.850;2022-10-24T09:14:52;0.00;;;0.00;;
24305;SDS011;12423;48.768;8.850;2022-10-24T09:19:22;0.00;;;0.00;;
24305;SDS011;12423;48.768;8.850;2022-10-24T09:21:26;0.25;;;0.25;;
24305;SDS011;12423;48.768;8.850;2022-10-24T09:23:27;0.00;;;0.00;;
24305;SDS011;12423;48.768;8.850;2022-10-24T09:25:32;0.38;;;0.30;;
24305;SDS011;12423;48.768;8.850;2022-10-24T09:27:36;0.00;;;0.00;;
24305;SDS011;12423;48.768;8.850;2022-10-24T09:29:39;0.10;;;0.10;;
24305;SDS011;12423;48.768;8.850;2022-10-24T09:31:40;0.00;;;0.00;;
24305;SDS011;12423;48.768;8.850;2022-10-24T09:33:41;0.28;;;0.28;;
24305;SDS011;12423;48.768;8.850;2022-10-24T09:35:44;3.67;;;0.15;;
24305;SDS011;12423;48.768;8.850;2022-10-24T09:37:57;0.40;;;0.40;;
24305;SDS011;12423;48.768;8.850;2022-10-24T09:40:31;0.10;;;0.10;;
24305;SDS011;12423;48.768;8.850;2022-10-24T09:42:34;0.32;;;0.30;;
24305;SDS011;12423;48.768;8.850;2022-10-24T09:44:38;0.13;;;0.13;;
24305;SDS011;12423;48.768;8.850;2022-10-24T09:46:47;0.22;;;0.22;;
24305;SDS011;12423;48.768;8.850;2022-10-24T09:48:58;0.13;;;0.13;;
24305;SDS011;12423;48.768;8.850;2022-10-24T09:51:03;0.00;;;0.00;;
24305;SDS011;12423;48.768;8.850;2022-10-24T09:53:09;1.77;;;1.17;;
24305;SDS011;12423;48.768;8.850;2022-10-24T09:55:23;0.20;;;0.20;;
24305;SDS011;12423;48.768;8.850;2022-10-24T09:57:28;0.45;;;0.45;;
24305;SDS011;12423;48.768;8.850;2022-10-24T09:59:42;0.30;;;0.30;;
24305;SDS011;12423;48.768;8.850;2022-10-24T10:01:45;0.00;;;0.00;;
24305;SDS011;12423;48.768;8.850;2022-10-24T10:03:59;0.00;;;0.00;;
24305;SDS011;12423;48.768;8.850;2022-10-24T10:06:23;1.02;;;0.63;;
24305;SDS011;12423;48.768;8.850;2022-10-24T10:08:24;0.30;;;0.30;;
24305;SDS011;12423;48.768;8.850;2022-10-24T10:10:30;0.25;;;0.25;;
24305;SDS011;12423;48.768;8.850;2022-10-24T10:14:37;0.10;;;0.10;;
24305;SDS011;12423;48.768;8.850;2022-10-24T10:16:40;0.00;;;0.00;;
24305;SDS011;12423;48.768;8.850;2022-10-24T10:18:42;0.00;;;0.00;;
24305;SDS011;12423;48.768;8.850;2022-10-24T10:20:46;0.10;;;0.10;;
24305;SDS011;12423;48.768;8.850;2022-10-24T10:25:32;0.00;;;0.00;;
24305;SDS011;12423;48.768;8.850;2022-10-24T10:27:37;17.85;;;1.15;;
24305;SDS011;12423;48.768;8.850;2022-10-24T10:29:40;0.00;;;0.00;;
24305;SDS011;12423;48.768;8.850;2022-10-24T10:31:42;0.43;;;0.40;;
24305;SDS011;12423;48.768;8.850;2022-10-24T10:40:51;1.10;;;0.85;;
24305;SDS011;12423;48.768;8.850;2022-10-24T10:49:40;0.30;;;0.30;;
24305;SDS011;12423;48.768;8.850;2022-10-24T10:52:28;0.95;;;0.45;;
24305;SDS011;12423;48.768;8.850;2022-10-24T10:58:35;0.17;;;0.17;;
24305;SDS011;12423;48.768;8.850;2022-10-24T11:07:45;0.00;;;0.00;;
24305;SDS011;12423;48.768;8.850;2022-10-24T11:09:58;0.00;;;0.00;;
24305;SDS011;12423;48.768;8.850;2022-10-24T11:12:07;0.00;;;0.00;;
24305;SDS011;12423;48.768;8.850;2022-10-24T11:16:33;0.30;;;0.30;;
24305;SDS011;12423;48.768;8.850;2022-10-24T11:18:36;0.00;;;0.00;;
24305;SDS011;12423;48.768;8.850;2022-10-24T11:20:43;0.10;;;0.10;;
24305;SDS011;12423;48.768;8.850;2022-10-24T11:22:53;0.00;;;0.00;;
24305;SDS011;12423;48.768;8.850;2022-10-24T11:24:59;1.10;;;1.00;;
24305;SDS011;12423;48.768;8.850;2022-10-24T11:27:09;0.17;;;0.17;;
24305;SDS011;12423;48.768;8.850;2022-10-24T11:29:22;0.10;;;0.10;;
24305;SDS011;12423;48.768;8.850;2022-10-24T11:31:36;0.00;;;0.00;;
24305;SDS011;12423;48.768;8.850;2022-10-24T11:33:45;0.00;;;0.00;;
24305;SDS011;12423;48.768;8.850;2022-10-24T11:38:31;0.08;;;0.08;;
24305;SDS011;12423;48.768;8.850;2022-10-24T11:40:41;0.00;;;0.00;;
24305;SDS011;12423;48.768;8.850;2022-10-24T11:49:57;0.00;;;0.00;;
24305;SDS011;12423;48.768;8.850;2022-10-24T11:52:10;0.00;;;0.00;;
24305;SDS011;12423;48.768;8.850;2022-10-24T11:54:33;0.10;;;0.10;;
24305;SDS011;12423;48.768;8.850;2022-10-24T11:56:43;0.17;;;0.17;;
24305;SDS011;12423;48.768;8.850;2022-10-24T11:59:22;0.00;;;0.00;;
24305;SDS011;12423;48.768;8.850;2022-10-24T12:11:20;0.15;;;0.15;;
24305;SDS011;12423;48.768;8.850;2022-10-24T12:13:39;0.30;;;0.30;;
24305;SDS011;12423;48.768;8.850;2022-10-24T12:15:49;3.97;;;1.35;;
24305;SDS011;12423;48.768;8.850;2022-10-24T12:20:00;3.10;;;1.88;;
24305;SDS011;12423;48.768;8.850;2022-10-24T12:22:04;0.17;;;0.17;;
24305;SDS011;12423;48.768;8.850;2022-10-24T12:24:18;0.00;;;0.00;;
24305;SDS011;12423;48.768;8.850;2022-10-24T12:26:28;0.03;;;0.03;;
24305;SDS011;12423;48.768;8.850;2022-10-24T12:28:30;1.10;;;0.80;;
24305;SDS011;12423;48.768;8.850;2022-10-24T12:30:33;0.00;;;0.00;;
24305;SDS011;12423;48.768;8.850;2022-10-24T12:32:39;3.50;;;2.55;;
24305;SDS011;12423;48.768;8.850;2022-10-24T12:34:41;0.20;;;0.17;;
24305;SDS011;12423;48.768;8.850;2022-10-24T12:39:08;536.53;;;498.75;;
24305;SDS011;12423;48.768;8.850;2022-10-24T12:45:34;693.05;;;642.63;;
24305;SDS011;12423;48.768;8.850;2022-10-24T12:47:39;777.35;;;722.22;;
24305;SDS011;12423;48.768;8.850;2022-10-24T12:49:44;827.70;;;769.13;;
24305;SDS011;12423;48.768;8.850;2022-10-24T12:51:45;797.45;;;741.10;;
24305;SDS011;12423;48.768;8.850;2022-10-24T12:53:59;800.65;;;733.22;;
24305;SDS011;12423;48.768;8.850;2022-10-24T12:56:09;853.00;;;793.25;;
24305;SDS011;12423;48.768;8.850;2022-10-24T13:00:28;786.78;;;732.90;;
24305;SDS011;12423;48.768;8.850;2022-10-24T13:09:17;0.00;;;0.00;;
24305;SDS011;12423;48.768;8.850;2022-10-24T13:11:35;0.17;;;0.17;;
24305;SDS011;12423;48.768;8.850;2022-10-24T13:16:15;1.08;;;0.63;;
24305;SDS011;12423;48.768;8.850;2022-10-24T13:20:41;0.55;;;0.55;;
24305;SDS011;12423;48.768;8.850;2022-10-24T13:22:44;0.00;;;0.00;;
24305;SDS011;12423;48.768;8.850;2022-10-24T13:24:46;0.03;;;0.03;;
24305;SDS011;12423;48.768;8.850;2022-10-24T13:28:57;0.17;;;0.17;;
24305;SDS011;12423;48.768;8.850;2022-10-24T13:33:30;1.13;;;0.80;;
24305;SDS011;12423;48.768;8.850;2022-10-24T13:35:36;1.30;;;0.30;;
24305;SDS011;12423;48.768;8.850;2022-10-24T13:37:41;0.00;;;0.00;;
24305;SDS011;12423;48.768;8.850;2022-10-24T13:39:47;0.00;;;0.00;;
24305;SDS011;12423;48.768;8.850;2022-10-24T13:41:59;0.10;;;0.10;;
24305;SDS011;12423;48.768;8.850;2022-10-24T13:46:48;0.20;;;0.20;;
24305;SDS011;12423;48.768;8.850;2022-10-24T13:48:52;2.17;;;1.35;;
24305;SDS011;12423;48.768;8.850;2022-10-24T13:53:22;0.20;;;0.20;;
24305;SDS011;12423;48.768;8.850;2022-10-24T13:55:36;0.10;;;0.10;;
24305;SDS011;12423;48.768;8.850;2022-10-24T13:57:52;0.47;;;0.47;;
24305;SDS011;12423;48.768;8.850;2022-10-24T13:59:57;0.95;;;0.95;;
24305;SDS011;12423;48.768;8.850;2022-10-24T14:02:00;0.40;;;0.30;;
24305;SDS011;12423;48.768;8.850;2022-10-24T14:04:06;0.17;;;0.17;;
24305;SDS011;12423;48.768;8.850;2022-10-24T14:06:07;0.00;;;0.00;;
24305;SDS011;12423;48.768;8.850;2022-10-24T14:08:13;0.10;;;0.10;;
24305;SDS011;12423;48.768;8.850;2022-10-24T14:10:22;0.00;;;0.00;;
24305;SDS011;12423;48.768;8.850;2022-10-24T14:12:26;0.35;;;0.20;;
24305;SDS011;12423;48.768;8.850;2022-10-24T14:14:36;0.00;;;0.00;;
24305;SDS011;12423;48.768;8.850;2022-10-24T14:16:42;0.00;;;0.00;;